»·PEaware :: PRD69 KLAS-KSMO

PRD69 :: KLAS-KSMO

FLIGHT INFORMATION

Flight Status: Arrived
Operator: Unknown
More flights by this operator :: More flights under this callsign
Pilot: Ryan B. (8502)
Aircraft: BEECH AIRCRAFT BEECH AIRLINER
(B190)
More flights by this aircraft type
Origin: KLAS McCarran Intl
United States
Destination: KSMO Santa Monica Mun
United States
More flights between these airports :: More routes between these airports
Route: +GFS WNCHL BOGET2
File this flight plan on PilotEdge
Remarks:
Altitude:
(Current/Filed)
18,000ft
Speed:
(Current/Filed)
264kts
Departed: 04-Oct-18 07:23 PM
Arrived: 04-Oct-18 08:27 PM
Distance/Time
Traveled:
204nm/1:04
Distance/Time
To Go:
Arrived

Flight Plot

Page will automatically refresh every two minutes.

Flight plan parsing failed; only flown route is shown


Map Options




Map Legend


Flown Route
Filed Route
Departure Airport
Arrival Airport
Navaid (VOR, NDB)
Fix

Horizontal Profiles

Position Reports

Time Latitude Longitude Heading Altitude Ground
Speed
04-Oct-18 19:04 36.081454 -115.171212 89 2170ft 0kts
04-Oct-18 19:05 36.081454 -115.171212 90 2170ft 0kts
04-Oct-18 19:06 36.081454 -115.171212 90 2170ft 0kts
04-Oct-18 19:07 36.081454 -115.171212 90 2170ft 0kts
04-Oct-18 19:08 36.081454 -115.171212 89 2170ft 0kts
04-Oct-18 19:09 36.081454 -115.171212 89 2170ft 0kts
04-Oct-18 19:10 36.081454 -115.171212 89 2170ft 0kts
04-Oct-18 19:11 36.081454 -115.171212 89 2170ft 0kts
04-Oct-18 19:12 36.081454 -115.171212 89 2170ft 0kts
04-Oct-18 19:13 36.081454 -115.171212 89 2170ft 0kts
04-Oct-18 19:14 36.081454 -115.171212 89 2170ft 0kts
04-Oct-18 19:15 36.081454 -115.171212 90 2170ft 0kts
04-Oct-18 19:16 36.081454 -115.171212 90 2170ft 0kts
04-Oct-18 19:17 36.081454 -115.171212 90 2170ft 0kts
04-Oct-18 19:18 36.081454 -115.171212 90 2170ft 0kts
04-Oct-18 19:19 36.081454 -115.171212 90 2170ft 0kts
04-Oct-18 19:20 36.081454 -115.171212 90 2170ft 0kts
04-Oct-18 19:21 36.081454 -115.171212 90 2170ft 0kts
04-Oct-18 19:22 36.082277 -115.168726 24 2164ft 20kts
04-Oct-18 19:23 36.089204 -115.164785 23 2135ft 32kts
04-Oct-18 19:24 36.097778 -115.159883 25 2098ft 34kts
04-Oct-18 19:25 36.097989 -115.157386 205 2089ft 42kts
04-Oct-18 19:26 36.062290 -115.169946 185 3443ft 174kts
04-Oct-18 19:27 36.012125 -115.175978 187 5456ft 187kts
04-Oct-18 19:28 35.959998 -115.182342 187 7537ft 191kts
04-Oct-18 19:29 35.906548 -115.188671 187 9428ft 196kts
04-Oct-18 19:30 35.851852 -115.189033 182 11299ft 201kts
04-Oct-18 19:31 35.795456 -115.188203 182 13069ft 205kts
04-Oct-18 19:32 35.738166 -115.187244 183 14616ft 207kts
04-Oct-18 19:33 35.680304 -115.186285 183 15965ft 210kts
04-Oct-18 19:34 35.621794 -115.185312 184 17137ft 212kts
04-Oct-18 19:35 35.562384 -115.184348 184 17992ft 221kts
04-Oct-18 19:36 35.501692 -115.183428 184 18007ft 245kts
04-Oct-18 19:37 35.432128 -115.182239 184 18003ft 253kts
04-Oct-18 19:38 35.361517 -115.181034 184 18001ft 256kts
04-Oct-18 19:39 35.290160 -115.179842 184 17999ft 256kts
04-Oct-18 19:40 35.218975 -115.178654 183 17996ft 256kts
04-Oct-18 19:41 35.148253 -115.179740 204 17933ft 252kts
04-Oct-18 19:42 35.123533 -115.256107 255 17983ft 255kts
04-Oct-18 19:43 35.112299 -115.342064 256 17922ft 257kts
04-Oct-18 19:44 35.101825 -115.427969 257 17918ft 256kts
04-Oct-18 19:45 35.091364 -115.514145 257 17934ft 255kts
04-Oct-18 19:46 35.080918 -115.599743 257 17962ft 255kts
04-Oct-18 19:47 35.070558 -115.684129 256 17999ft 254kts
04-Oct-18 19:48 35.060006 -115.769625 256 17993ft 256kts
04-Oct-18 19:49 35.049315 -115.855754 256 17979ft 256kts
04-Oct-18 19:50 35.038575 -115.941724 256 17963ft 256kts
04-Oct-18 19:51 35.027778 -116.027554 256 17966ft 256kts
04-Oct-18 19:52 35.016972 -116.113068 257 17969ft 255kts
04-Oct-18 19:53 35.004987 -116.198134 252 17975ft 253kts
04-Oct-18 19:54 34.987926 -116.281352 253 17970ft 253kts
04-Oct-18 19:55 34.970832 -116.364707 253 17965ft 253kts
04-Oct-18 19:56 34.953877 -116.447590 253 17961ft 252kts
04-Oct-18 19:57 34.936850 -116.530511 254 17960ft 252kts
04-Oct-18 19:58 34.919767 -116.613406 254 17960ft 252kts
04-Oct-18 19:59 34.903342 -116.692791 254 17966ft 253kts
04-Oct-18 20:00 34.886221 -116.775289 254 17969ft 254kts
04-Oct-18 20:01 34.868902 -116.858485 255 17968ft 254kts
04-Oct-18 20:02 34.851439 -116.941984 255 17978ft 254kts
04-Oct-18 20:03 34.833946 -117.025292 255 17996ft 254kts
04-Oct-18 20:04 34.816404 -117.108547 255 17989ft 254kts
04-Oct-18 20:05 34.798747 -117.192118 255 17992ft 255kts
04-Oct-18 20:06 34.781046 -117.275541 255 17991ft 255kts
04-Oct-18 20:07 34.763280 -117.358950 255 17991ft 254kts
04-Oct-18 20:08 34.745494 -117.442151 255 17989ft 254kts
04-Oct-18 20:09 34.727629 -117.525476 255 17989ft 254kts
04-Oct-18 20:10 34.709764 -117.608539 255 17969ft 254kts
04-Oct-18 20:11 34.691641 -117.692503 255 16652ft 260kts
04-Oct-18 20:12 34.673218 -117.777533 255 15273ft 263kts
04-Oct-18 20:13 34.657628 -117.849275 255 14117ft 265kts
04-Oct-18 20:14 34.626332 -117.942700 247 13164ft 252kts
04-Oct-18 20:15 34.598406 -118.020813 247 12263ft 259kts
04-Oct-18 20:16 34.570379 -118.099064 247 11165ft 265kts
04-Oct-18 20:17 34.541375 -118.179835 246 9408ft 257kts
04-Oct-18 20:18 34.516550 -118.244202 227 8015ft 254kts
04-Oct-18 20:19 34.444682 -118.274047 196 7575ft 227kts
04-Oct-18 20:20 34.392871 -118.290397 196 7503ft 232kts
04-Oct-18 20:21 34.319994 -118.313241 195 7493ft 233kts
04-Oct-18 20:22 34.264359 -118.313991 172 7151ft 247kts
04-Oct-18 20:23 34.195827 -118.300121 172 6178ft 252kts
04-Oct-18 20:24 34.130640 -118.287902 178 5019ft 240kts
04-Oct-18 20:25 34.081111 -118.329494 222 4977ft 213kts
04-Oct-18 20:26 34.040004 -118.372563 222 4756ft 173kts
04-Oct-18 20:27 34.039237 -118.419764 298 2345ft 153kts
04-Oct-18 20:28 34.018005 -118.448594 222 155ft 102kts
04-Oct-18 20:29 34.014470 -118.454024 44 134ft 24kts
04-Oct-18 20:30 34.018253 -118.449567 44 153ft 13kts
04-Oct-18 20:31 34.019808 -118.448599 313 161ft 0kts

Navigation Log

Ident Type
Flight plan parsing failed, navigation log unavailable